sensor_id;sensor_type;location;lat;lon;timestamp;P1;durP1;ratioP1;P2;durP2;ratioP2
51814;SDS011;37874;53.158;6.766;2022-11-03T00:02:24;8.07;;;1.55;;
51814;SDS011;37874;53.158;6.766;2022-11-03T00:04:49;6.00;;;1.38;;
51814;SDS011;37874;53.158;6.766;2022-11-03T00:07:19;5.50;;;1.27;;
51814;SDS011;37874;53.158;6.766;2022-11-03T00:09:45;4.80;;;1.10;;
51814;SDS011;37874;53.158;6.766;2022-11-03T00:12:11;6.40;;;1.50;;
51814;SDS011;37874;53.158;6.766;2022-11-03T00:14:37;6.15;;;1.30;;
51814;SDS011;37874;53.158;6.766;2022-11-03T00:17:02;4.68;;;1.35;;
51814;SDS011;37874;53.158;6.766;2022-11-03T00:19:28;4.97;;;1.40;;
51814;SDS011;37874;53.158;6.766;2022-11-03T00:21:54;5.53;;;1.20;;
51814;SDS011;37874;53.158;6.766;2022-11-03T00:24:22;3.83;;;1.02;;
51814;SDS011;37874;53.158;6.766;2022-11-03T00:26:48;3.40;;;1.20;;
51814;SDS011;37874;53.158;6.766;2022-11-03T00:29:13;3.72;;;1.27;;
51814;SDS011;37874;53.158;6.766;2022-11-03T00:31:40;6.25;;;1.20;;
51814;SDS011;37874;53.158;6.766;2022-11-03T00:34:07;3.58;;;1.05;;
51814;SDS011;37874;53.158;6.766;2022-11-03T00:36:34;3.45;;;1.10;;
51814;SDS011;37874;53.158;6.766;2022-11-03T00:39:02;4.70;;;1.25;;
51814;SDS011;37874;53.158;6.766;2022-11-03T00:41:28;4.05;;;1.10;;
51814;SDS011;37874;53.158;6.766;2022-11-03T00:43:54;4.07;;;1.15;;
51814;SDS011;37874;53.158;6.766;2022-11-03T00:46:21;5.32;;;1.20;;
51814;SDS011;37874;53.158;6.766;2022-11-03T00:48:47;4.63;;;1.10;;
51814;SDS011;37874;53.158;6.766;2022-11-03T00:51:14;4.10;;;1.15;;
51814;SDS011;37874;53.158;6.766;2022-11-03T00:53:52;4.10;;;1.10;;
51814;SDS011;37874;53.158;6.766;2022-11-03T00:58:46;3.53;;;1.13;;
51814;SDS011;37874;53.158;6.766;2022-11-03T01:03:44;3.65;;;1.00;;
51814;SDS011;37874;53.158;6.766;2022-11-03T01:06:31;4.50;;;1.27;;
51814;SDS011;37874;53.158;6.766;2022-11-03T01:11:49;4.47;;;1.30;;
51814;SDS011;37874;53.158;6.766;2022-11-03T01:14:28;4.75;;;1.83;;
51814;SDS011;37874;53.158;6.766;2022-11-03T01:16:56;5.05;;;1.33;;
51814;SDS011;37874;53.158;6.766;2022-11-03T01:19:22;4.90;;;1.23;;
51814;SDS011;37874;53.158;6.766;2022-11-03T01:21:49;4.00;;;1.27;;
51814;SDS011;37874;53.158;6.766;2022-11-03T01:24:15;5.38;;;1.42;;
51814;SDS011;37874;53.158;6.766;2022-11-03T01:26:41;4.80;;;1.30;;
51814;SDS011;37874;53.158;6.766;2022-11-03T01:29:06;5.57;;;1.45;;
51814;SDS011;37874;53.158;6.766;2022-11-03T01:31:32;3.67;;;1.02;;
51814;SDS011;37874;53.158;6.766;2022-11-03T01:33:58;7.25;;;1.30;;
51814;SDS011;37874;53.158;6.766;2022-11-03T01:36:24;5.80;;;1.58;;
51814;SDS011;37874;53.158;6.766;2022-11-03T01:38:50;4.65;;;1.17;;
51814;SDS011;37874;53.158;6.766;2022-11-03T01:41:19;3.95;;;1.00;;
51814;SDS011;37874;53.158;6.766;2022-11-03T01:43:51;4.30;;;1.10;;
51814;SDS011;37874;53.158;6.766;2022-11-03T01:46:40;3.60;;;1.00;;
51814;SDS011;37874;53.158;6.766;2022-11-03T01:49:12;4.10;;;1.20;;
51814;SDS011;37874;53.158;6.766;2022-11-03T01:51:41;4.88;;;1.20;;
51814;SDS011;37874;53.158;6.766;2022-11-03T01:54:10;3.55;;;0.93;;
51814;SDS011;37874;53.158;6.766;2022-11-03T01:56:39;5.00;;;1.17;;
51814;SDS011;37874;53.158;6.766;2022-11-03T01:59:07;3.55;;;1.00;;
51814;SDS011;37874;53.158;6.766;2022-11-03T02:01:34;5.30;;;1.30;;
51814;SDS011;37874;53.158;6.766;2022-11-03T02:04:02;5.47;;;1.20;;
51814;SDS011;37874;53.158;6.766;2022-11-03T02:06:33;3.22;;;1.15;;
51814;SDS011;37874;53.158;6.766;2022-11-03T02:09:01;4.28;;;1.23;;
51814;SDS011;37874;53.158;6.766;2022-11-03T02:11:29;4.93;;;1.02;;
51814;SDS011;37874;53.158;6.766;2022-11-03T02:14:14;5.45;;;1.23;;
51814;SDS011;37874;53.158;6.766;2022-11-03T02:16:41;4.57;;;1.38;;
51814;SDS011;37874;53.158;6.766;2022-11-03T02:21:55;4.20;;;1.20;;
51814;SDS011;37874;53.158;6.766;2022-11-03T02:25:33;6.40;;;1.25;;
51814;SDS011;37874;53.158;6.766;2022-11-03T02:27:31;3.42;;;1.05;;
51814;SDS011;37874;53.158;6.766;2022-11-03T02:29:57;3.60;;;1.02;;
51814;SDS011;37874;53.158;6.766;2022-11-03T02:32:24;4.40;;;1.10;;
51814;SDS011;37874;53.158;6.766;2022-11-03T02:37:56;3.03;;;0.90;;
51814;SDS011;37874;53.158;6.766;2022-11-03T02:40:27;4.60;;;1.30;;
51814;SDS011;37874;53.158;6.766;2022-11-03T02:42:56;3.30;;;0.90;;
51814;SDS011;37874;53.158;6.766;2022-11-03T02:45:24;3.50;;;1.00;;
51814;SDS011;37874;53.158;6.766;2022-11-03T02:47:52;3.72;;;1.42;;
51814;SDS011;37874;53.158;6.766;2022-11-03T02:50:24;4.50;;;0.98;;
51814;SDS011;37874;53.158;6.766;2022-11-03T02:52:55;3.13;;;0.90;;
51814;SDS011;37874;53.158;6.766;2022-11-03T02:55:38;4.53;;;1.20;;
51814;SDS011;37874;53.158;6.766;2022-11-03T03:00:50;4.53;;;0.93;;
51814;SDS011;37874;53.158;6.766;2022-11-03T03:03:31;5.50;;;1.42;;
51814;SDS011;37874;53.158;6.766;2022-11-03T03:06:07;4.03;;;1.27;;
51814;SDS011;37874;53.158;6.766;2022-11-03T03:08:36;2.67;;;0.88;;
51814;SDS011;37874;53.158;6.766;2022-11-03T03:11:07;2.92;;;0.90;;
51814;SDS011;37874;53.158;6.766;2022-11-03T03:13:36;5.22;;;1.25;;
51814;SDS011;37874;53.158;6.766;2022-11-03T03:21:22;4.88;;;1.15;;
51814;SDS011;37874;53.158;6.766;2022-11-03T03:23:58;4.57;;;1.52;;
51814;SDS011;37874;53.158;6.766;2022-11-03T03:26:29;4.68;;;1.30;;
51814;SDS011;37874;53.158;6.766;2022-11-03T03:29:02;4.47;;;1.25;;
51814;SDS011;37874;53.158;6.766;2022-11-03T03:31:34;3.08;;;0.90;;
51814;SDS011;37874;53.158;6.766;2022-11-03T03:34:02;8.15;;;1.30;;
51814;SDS011;37874;53.158;6.766;2022-11-03T03:36:29;4.18;;;1.42;;
51814;SDS011;37874;53.158;6.766;2022-11-03T03:38:59;4.47;;;1.00;;
51814;SDS011;37874;53.158;6.766;2022-11-03T03:41:28;6.10;;;1.25;;
51814;SDS011;37874;53.158;6.766;2022-11-03T03:43:57;5.57;;;1.20;;
51814;SDS011;37874;53.158;6.766;2022-11-03T03:46:28;3.92;;;1.10;;
51814;SDS011;37874;53.158;6.766;2022-11-03T03:49:00;5.57;;;1.50;;
51814;SDS011;37874;53.158;6.766;2022-11-03T03:51:26;6.55;;;1.38;;
51814;SDS011;37874;53.158;6.766;2022-11-03T03:53:54;4.10;;;1.20;;
51814;SDS011;37874;53.158;6.766;2022-11-03T03:56:20;4.20;;;1.23;;
51814;SDS011;37874;53.158;6.766;2022-11-03T03:58:50;4.18;;;1.20;;
51814;SDS011;37874;53.158;6.766;2022-11-03T04:01:16;4.68;;;1.20;;
51814;SDS011;37874;53.158;6.766;2022-11-03T04:03:42;3.38;;;1.10;;
51814;SDS011;37874;53.158;6.766;2022-11-03T04:06:07;4.82;;;1.08;;
51814;SDS011;37874;53.158;6.766;2022-11-03T04:08:34;4.75;;;1.30;;
51814;SDS011;37874;53.158;6.766;2022-11-03T04:10:59;3.95;;;1.00;;
51814;SDS011;37874;53.158;6.766;2022-11-03T04:13:44;4.80;;;0.90;;
51814;SDS011;37874;53.158;6.766;2022-11-03T04:16:28;7.15;;;1.52;;
51814;SDS011;37874;53.158;6.766;2022-11-03T04:19:12;3.50;;;1.13;;
51814;SDS011;37874;53.158;6.766;2022-11-03T04:22:07;4.13;;;0.90;;
51814;SDS011;37874;53.158;6.766;2022-11-03T04:24:43;3.95;;;1.10;;
51814;SDS011;37874;53.158;6.766;2022-11-03T04:27:15;3.50;;;0.93;;
51814;SDS011;37874;53.158;6.766;2022-11-03T04:32:30;3.20;;;0.98;;
51814;SDS011;37874;53.158;6.766;2022-11-03T04:34:57;4.03;;;1.23;;
51814;SDS011;37874;53.158;6.766;2022-11-03T04:37:25;5.82;;;1.40;;
51814;SDS011;37874;53.158;6.766;2022-11-03T04:39:53;4.18;;;1.10;;
51814;SDS011;37874;53.158;6.766;2022-11-03T04:42:22;4.40;;;1.20;;
51814;SDS011;37874;53.158;6.766;2022-11-03T04:44:48;5.07;;;1.25;;
51814;SDS011;37874;53.158;6.766;2022-11-03T04:47:14;4.90;;;1.10;;
51814;SDS011;37874;53.158;6.766;2022-11-03T04:49:41;4.55;;;1.30;;
51814;SDS011;37874;53.158;6.766;2022-11-03T04:52:18;6.57;;;1.30;;
51814;SDS011;37874;53.158;6.766;2022-11-03T04:54:46;5.22;;;1.25;;
51814;SDS011;37874;53.158;6.766;2022-11-03T04:57:14;4.07;;;1.20;;
51814;SDS011;37874;53.158;6.766;2022-11-03T04:59:45;3.00;;;0.90;;
51814;SDS011;37874;53.158;6.766;2022-11-03T05:02:13;4.10;;;1.20;;
51814;SDS011;37874;53.158;6.766;2022-11-03T05:04:41;3.45;;;1.10;;
51814;SDS011;37874;53.158;6.766;2022-11-03T05:09:58;3.17;;;0.95;;
51814;SDS011;37874;53.158;6.766;2022-11-03T05:12:24;5.93;;;1.50;;
51814;SDS011;37874;53.158;6.766;2022-11-03T05:14:50;3.20;;;1.10;;
51814;SDS011;37874;53.158;6.766;2022-11-03T05:17:22;5.85;;;1.33;;
51814;SDS011;37874;53.158;6.766;2022-11-03T05:19:56;4.95;;;1.08;;
51814;SDS011;37874;53.158;6.766;2022-11-03T05:22:28;6.60;;;1.40;;
51814;SDS011;37874;53.158;6.766;2022-11-03T05:25:02;5.07;;;1.08;;
51814;SDS011;37874;53.158;6.766;2022-11-03T05:27:45;9.77;;;1.30;;
51814;SDS011;37874;53.158;6.766;2022-11-03T05:30:12;3.85;;;1.27;;
51814;SDS011;37874;53.158;6.766;2022-11-03T05:32:38;4.20;;;1.10;;
51814;SDS011;37874;53.158;6.766;2022-11-03T05:35:07;5.10;;;1.30;;
51814;SDS011;37874;53.158;6.766;2022-11-03T05:37:45;3.65;;;1.00;;
51814;SDS011;37874;53.158;6.766;2022-11-03T05:40:14;4.53;;;1.23;;
51814;SDS011;37874;53.158;6.766;2022-11-03T05:42:52;4.28;;;1.20;;
51814;SDS011;37874;53.158;6.766;2022-11-03T05:45:23;5.13;;;1.35;;
51814;SDS011;37874;53.158;6.766;2022-11-03T05:47:57;4.90;;;1.05;;
51814;SDS011;37874;53.158;6.766;2022-11-03T05:50:25;4.32;;;1.08;;
51814;SDS011;37874;53.158;6.766;2022-11-03T05:52:53;4.90;;;1.20;;
51814;SDS011;37874;53.158;6.766;2022-11-03T05:55:24;4.30;;;1.40;;
51814;SDS011;37874;53.158;6.766;2022-11-03T05:57:55;4.32;;;1.30;;
51814;SDS011;37874;53.158;6.766;2022-11-03T06:00:29;3.50;;;1.20;;
51814;SDS011;37874;53.158;6.766;2022-11-03T06:02:57;4.28;;;1.20;;
51814;SDS011;37874;53.158;6.766;2022-11-03T06:05:24;4.60;;;1.23;;
51814;SDS011;37874;53.158;6.766;2022-11-03T06:07:54;4.10;;;1.25;;
51814;SDS011;37874;53.158;6.766;2022-11-03T06:10:26;4.60;;;1.35;;
51814;SDS011;37874;53.158;6.766;2022-11-03T06:13:06;4.72;;;1.40;;
51814;SDS011;37874;53.158;6.766;2022-11-03T06:15:36;3.95;;;1.08;;
51814;SDS011;37874;53.158;6.766;2022-11-03T06:20:57;5.88;;;1.48;;
51814;SDS011;37874;53.158;6.766;2022-11-03T06:23:27;3.72;;;1.00;;
51814;SDS011;37874;53.158;6.766;2022-11-03T06:25:54;4.78;;;1.15;;
51814;SDS011;37874;53.158;6.766;2022-11-03T06:28:21;3.88;;;1.05;;
51814;SDS011;37874;53.158;6.766;2022-11-03T06:30:54;5.65;;;1.30;;
51814;SDS011;37874;53.158;6.766;2022-11-03T06:33:25;4.78;;;1.08;;
51814;SDS011;37874;53.158;6.766;2022-11-03T06:35:58;3.83;;;1.20;;
51814;SDS011;37874;53.158;6.766;2022-11-03T06:38:27;3.75;;;1.30;;
51814;SDS011;37874;53.158;6.766;2022-11-03T06:40:56;3.50;;;1.02;;
51814;SDS011;37874;53.158;6.766;2022-11-03T06:43:24;3.92;;;1.00;;
51814;SDS011;37874;53.158;6.766;2022-11-03T06:45:58;3.63;;;1.13;;
51814;SDS011;37874;53.158;6.766;2022-11-03T06:48:27;7.30;;;1.38;;
51814;SDS011;37874;53.158;6.766;2022-11-03T06:50:54;4.63;;;1.30;;
51814;SDS011;37874;53.158;6.766;2022-11-03T06:53:22;4.40;;;1.30;;
51814;SDS011;37874;53.158;6.766;2022-11-03T06:55:51;5.30;;;1.52;;
51814;SDS011;37874;53.158;6.766;2022-11-03T07:01:02;5.88;;;1.20;;
51814;SDS011;37874;53.158;6.766;2022-11-03T07:03:45;4.05;;;1.20;;
51814;SDS011;37874;53.158;6.766;2022-11-03T07:06:14;4.28;;;1.10;;
51814;SDS011;37874;53.158;6.766;2022-11-03T07:08:55;5.63;;;1.30;;
51814;SDS011;37874;53.158;6.766;2022-11-03T07:11:26;4.55;;;1.23;;
51814;SDS011;37874;53.158;6.766;2022-11-03T07:14:18;6.55;;;1.55;;
51814;SDS011;37874;53.158;6.766;2022-11-03T07:16:46;5.53;;;1.13;;
51814;SDS011;37874;53.158;6.766;2022-11-03T07:19:18;6.65;;;1.35;;
51814;SDS011;37874;53.158;6.766;2022-11-03T07:21:45;3.67;;;1.00;;
51814;SDS011;37874;53.158;6.766;2022-11-03T07:26:45;3.55;;;1.08;;
51814;SDS011;37874;53.158;6.766;2022-11-03T07:29:14;5.68;;;1.25;;
51814;SDS011;37874;53.158;6.766;2022-11-03T07:34:13;4.93;;;1.50;;
51814;SDS011;37874;53.158;6.766;2022-11-03T07:36:42;5.38;;;1.35;;
51814;SDS011;37874;53.158;6.766;2022-11-03T07:39:11;4.05;;;1.23;;
51814;SDS011;37874;53.158;6.766;2022-11-03T07:41:41;4.72;;;1.38;;
51814;SDS011;37874;53.158;6.766;2022-11-03T07:44:08;5.32;;;1.20;;
51814;SDS011;37874;53.158;6.766;2022-11-03T07:46:40;4.63;;;1.08;;
51814;SDS011;37874;53.158;6.766;2022-11-03T07:49:07;5.22;;;1.23;;
51814;SDS011;37874;53.158;6.766;2022-11-03T07:51:44;4.03;;;1.00;;
51814;SDS011;37874;53.158;6.766;2022-11-03T07:56:41;3.17;;;1.13;;
51814;SDS011;37874;53.158;6.766;2022-11-03T07:59:12;6.85;;;1.48;;
51814;SDS011;37874;53.158;6.766;2022-11-03T08:01:42;5.70;;;1.52;;
51814;SDS011;37874;53.158;6.766;2022-11-03T08:04:15;5.38;;;1.40;;
51814;SDS011;37874;53.158;6.766;2022-11-03T08:06:44;5.40;;;1.50;;
51814;SDS011;37874;53.158;6.766;2022-11-03T08:09:10;4.85;;;1.45;;
51814;SDS011;37874;53.158;6.766;2022-11-03T08:11:35;4.78;;;1.20;;
51814;SDS011;37874;53.158;6.766;2022-11-03T08:14:01;3.45;;;0.90;;
51814;SDS011;37874;53.158;6.766;2022-11-03T08:16:27;3.53;;;1.10;;
51814;SDS011;37874;53.158;6.766;2022-11-03T08:18:52;4.85;;;1.20;;
51814;SDS011;37874;53.158;6.766;2022-11-03T08:21:18;4.18;;;1.40;;
51814;SDS011;37874;53.158;6.766;2022-11-03T08:23:44;4.60;;;1.02;;
51814;SDS011;37874;53.158;6.766;2022-11-03T08:26:09;4.80;;;1.10;;
51814;SDS011;37874;53.158;6.766;2022-11-03T08:28:35;3.63;;;1.20;;
51814;SDS011;37874;53.158;6.766;2022-11-03T08:31:00;4.45;;;1.17;;
51814;SDS011;37874;53.158;6.766;2022-11-03T08:33:29;6.65;;;1.38;;
51814;SDS011;37874;53.158;6.766;2022-11-03T08:35:58;3.50;;;1.00;;
51814;SDS011;37874;53.158;6.766;2022-11-03T08:38:24;5.00;;;1.23;;
51814;SDS011;37874;53.158;6.766;2022-11-03T08:40:50;3.35;;;0.90;;
51814;SDS011;37874;53.158;6.766;2022-11-03T08:43:16;3.95;;;1.40;;
51814;SDS011;37874;53.158;6.766;2022-11-03T08:45:42;5.75;;;1.33;;
51814;SDS011;37874;53.158;6.766;2022-11-03T08:48:08;4.97;;;1.17;;
51814;SDS011;37874;53.158;6.766;2022-11-03T08:50:33;4.05;;;1.25;;
51814;SDS011;37874;53.158;6.766;2022-11-03T08:52:59;4.47;;;1.13;;
51814;SDS011;37874;53.158;6.766;2022-11-03T08:55:24;4.80;;;1.35;;
51814;SDS011;37874;53.158;6.766;2022-11-03T08:57:50;4.18;;;1.20;;
51814;SDS011;37874;53.158;6.766;2022-11-03T09:00:16;3.60;;;1.20;;
51814;SDS011;37874;53.158;6.766;2022-11-03T09:02:42;4.45;;;1.30;;
51814;SDS011;37874;53.158;6.766;2022-11-03T09:05:09;3.30;;;1.00;;
51814;SDS011;37874;53.158;6.766;2022-11-03T09:07:36;5.10;;;1.13;;
51814;SDS011;37874;53.158;6.766;2022-11-03T09:10:03;5.45;;;1.40;;
51814;SDS011;37874;53.158;6.766;2022-11-03T09:12:29;4.65;;;1.20;;
51814;SDS011;37874;53.158;6.766;2022-11-03T09:14:55;3.83;;;1.30;;
51814;SDS011;37874;53.158;6.766;2022-11-03T11:18:10;5.43;;;1.65;;
51814;SDS011;37874;53.158;6.766;2022-11-03T11:20:56;4.32;;;1.30;;
51814;SDS011;37874;53.158;6.766;2022-11-03T11:23:46;4.95;;;1.17;;
51814;SDS011;37874;53.158;6.766;2022-11-03T11:26:13;9.98;;;1.30;;
51814;SDS011;37874;53.158;6.766;2022-11-03T11:31:33;8.93;;;1.30;;
51814;SDS011;37874;53.158;6.766;2022-11-03T11:36:41;6.53;;;1.50;;
51814;SDS011;37874;53.158;6.766;2022-11-03T11:39:10;5.72;;;1.30;;
51814;SDS011;37874;53.158;6.766;2022-11-03T11:52:36;5.40;;;1.33;;
51814;SDS011;37874;53.158;6.766;2022-11-03T11:55:18;6.55;;;1.40;;
51814;SDS011;37874;53.158;6.766;2022-11-03T11:58:03;6.68;;;1.42;;
51814;SDS011;37874;53.158;6.766;2022-11-03T12:00:48;4.15;;;1.25;;
51814;SDS011;37874;53.158;6.766;2022-11-03T12:03:20;6.80;;;1.60;;
51814;SDS011;37874;53.158;6.766;2022-11-03T12:05:55;4.57;;;1.25;;
51814;SDS011;37874;53.158;6.766;2022-11-03T12:08:25;4.97;;;1.00;;
51814;SDS011;37874;53.158;6.766;2022-11-03T12:10:54;5.00;;;1.40;;
51814;SDS011;37874;53.158;6.766;2022-11-03T12:13:41;4.28;;;1.40;;
51814;SDS011;37874;53.158;6.766;2022-11-03T12:19:17;5.28;;;1.48;;
51814;SDS011;37874;53.158;6.766;2022-11-03T12:21:58;5.20;;;1.45;;
51814;SDS011;37874;53.158;6.766;2022-11-03T12:26:55;4.65;;;1.42;;
51814;SDS011;37874;53.158;6.766;2022-11-03T12:29:22;5.68;;;1.25;;
51814;SDS011;37874;53.158;6.766;2022-11-03T12:31:48;4.55;;;1.48;;
51814;SDS011;37874;53.158;6.766;2022-11-03T12:34:14;5.80;;;1.42;;
51814;SDS011;37874;53.158;6.766;2022-11-03T12:36:41;7.53;;;1.70;;
51814;SDS011;37874;53.158;6.766;2022-11-03T12:39:10;4.35;;;1.20;;
51814;SDS011;37874;53.158;6.766;2022-11-03T12:41:36;6.68;;;1.20;;
51814;SDS011;37874;53.158;6.766;2022-11-03T12:44:02;6.10;;;1.20;;
51814;SDS011;37874;53.158;6.766;2022-11-03T12:46:28;5.85;;;1.50;;
51814;SDS011;37874;53.158;6.766;2022-11-03T12:48:54;6.45;;;1.60;;
51814;SDS011;37874;53.158;6.766;2022-11-03T12:51:22;3.22;;;1.20;;
51814;SDS011;37874;53.158;6.766;2022-11-03T12:53:49;4.85;;;1.25;;
51814;SDS011;37874;53.158;6.766;2022-11-03T12:56:15;5.95;;;1.40;;
51814;SDS011;37874;53.158;6.766;2022-11-03T12:58:42;5.28;;;1.25;;
51814;SDS011;37874;53.158;6.766;2022-11-03T13:01:08;6.47;;;1.60;;
51814;SDS011;37874;53.158;6.766;2022-11-03T13:03:35;4.05;;;1.40;;
51814;SDS011;37874;53.158;6.766;2022-11-03T13:06:01;4.22;;;1.40;;
51814;SDS011;37874;53.158;6.766;2022-11-03T13:08:31;6.43;;;1.70;;
51814;SDS011;37874;53.158;6.766;2022-11-03T13:10:57;4.32;;;1.38;;
51814;SDS011;37874;53.158;6.766;2022-11-03T13:13:23;5.25;;;1.23;;
51814;SDS011;37874;53.158;6.766;2022-11-03T13:15:49;5.38;;;1.40;;
51814;SDS011;37874;53.158;6.766;2022-11-03T13:18:15;4.82;;;1.30;;
51814;SDS011;37874;53.158;6.766;2022-11-03T13:20:40;4.30;;;1.50;;
51814;SDS011;37874;53.158;6.766;2022-11-03T13:23:07;3.42;;;1.10;;
51814;SDS011;37874;53.158;6.766;2022-11-03T13:25:32;6.70;;;1.40;;
51814;SDS011;37874;53.158;6.766;2022-11-03T13:27:58;5.18;;;1.30;;
51814;SDS011;37874;53.158;6.766;2022-11-03T13:30:24;5.50;;;1.30;;
51814;SDS011;37874;53.158;6.766;2022-11-03T13:32:51;7.95;;;1.70;;
51814;SDS011;37874;53.158;6.766;2022-11-03T13:35:17;6.82;;;1.50;;
51814;SDS011;37874;53.158;6.766;2022-11-03T13:37:43;9.32;;;1.80;;
51814;SDS011;37874;53.158;6.766;2022-11-03T13:40:12;5.57;;;1.30;;
51814;SDS011;37874;53.158;6.766;2022-11-03T13:42:40;5.20;;;1.85;;
51814;SDS011;37874;53.158;6.766;2022-11-03T13:45:06;6.18;;;1.50;;
51814;SDS011;37874;53.158;6.766;2022-11-03T13:47:33;6.18;;;1.52;;
51814;SDS011;37874;53.158;6.766;2022-11-03T13:49:59;5.63;;;1.45;;
51814;SDS011;37874;53.158;6.766;2022-11-03T13:52:25;6.47;;;1.52;;
51814;SDS011;37874;53.158;6.766;2022-11-03T13:54:51;4.82;;;1.45;;
51814;SDS011;37874;53.158;6.766;2022-11-03T13:57:18;5.35;;;1.45;;
51814;SDS011;37874;53.158;6.766;2022-11-03T13:59:44;5.90;;;1.63;;
51814;SDS011;37874;53.158;6.766;2022-11-03T14:02:10;6.80;;;1.58;;
51814;SDS011;37874;53.158;6.766;2022-11-03T14:04:36;5.18;;;1.30;;
51814;SDS011;37874;53.158;6.766;2022-11-03T14:07:03;6.78;;;1.50;;
51814;SDS011;37874;53.158;6.766;2022-11-03T14:09:34;5.60;;;1.50;;
51814;SDS011;37874;53.158;6.766;2022-11-03T14:12:00;6.72;;;1.83;;
51814;SDS011;37874;53.158;6.766;2022-11-03T14:14:44;3.85;;;1.10;;
51814;SDS011;37874;53.158;6.766;2022-11-03T14:17:10;9.00;;;1.40;;
51814;SDS011;37874;53.158;6.766;2022-11-03T14:19:36;5.97;;;1.42;;
51814;SDS011;37874;53.158;6.766;2022-11-03T14:22:02;4.78;;;1.40;;
51814;SDS011;37874;53.158;6.766;2022-11-03T14:24:28;4.82;;;1.45;;
51814;SDS011;37874;53.158;6.766;2022-11-03T14:26:53;4.38;;;1.23;;
51814;SDS011;37874;53.158;6.766;2022-11-03T14:29:19;3.88;;;1.25;;
51814;SDS011;37874;53.158;6.766;2022-11-03T14:31:44;6.45;;;1.35;;
51814;SDS011;37874;53.158;6.766;2022-11-03T14:34:10;3.88;;;1.13;;
51814;SDS011;37874;53.158;6.766;2022-11-03T14:36:36;4.88;;;1.35;;
51814;SDS011;37874;53.158;6.766;2022-11-03T14:39:02;6.10;;;1.40;;
51814;SDS011;37874;53.158;6.766;2022-11-03T14:41:27;5.88;;;1.20;;
51814;SDS011;37874;53.158;6.766;2022-11-03T14:44:12;4.45;;;1.48;;
51814;SDS011;37874;53.158;6.766;2022-11-03T14:46:37;5.28;;;1.38;;
51814;SDS011;37874;53.158;6.766;2022-11-03T14:49:03;5.22;;;1.27;;
51814;SDS011;37874;53.158;6.766;2022-11-03T14:51:29;5.97;;;1.40;;
51814;SDS011;37874;53.158;6.766;2022-11-03T14:53:55;4.07;;;1.27;;
51814;SDS011;37874;53.158;6.766;2022-11-03T14:56:21;3.10;;;1.00;;
51814;SDS011;37874;53.158;6.766;2022-11-03T14:58:47;6.35;;;1.42;;
51814;SDS011;37874;53.158;6.766;2022-11-03T15:01:14;4.07;;;1.40;;
51814;SDS011;37874;53.158;6.766;2022-11-03T15:03:40;4.47;;;1.10;;
51814;SDS011;37874;53.158;6.766;2022-11-03T15:06:06;5.50;;;1.40;;
51814;SDS011;37874;53.158;6.766;2022-11-03T15:08:32;2.78;;;0.98;;
51814;SDS011;37874;53.158;6.766;2022-11-03T15:10:58;4.63;;;1.10;;
51814;SDS011;37874;53.158;6.766;2022-11-03T15:13:23;4.40;;;1.25;;
51814;SDS011;37874;53.158;6.766;2022-11-03T15:15:49;4.45;;;1.20;;
51814;SDS011;37874;53.158;6.766;2022-11-03T15:18:15;4.82;;;1.15;;
51814;SDS011;37874;53.158;6.766;2022-11-03T15:20:40;5.00;;;1.23;;
51814;SDS011;37874;53.158;6.766;2022-11-03T15:23:06;4.38;;;1.25;;
51814;SDS011;37874;53.158;6.766;2022-11-03T15:25:32;4.32;;;1.38;;
51814;SDS011;37874;53.158;6.766;2022-11-03T15:27:58;4.97;;;1.40;;
51814;SDS011;37874;53.158;6.766;2022-11-03T15:30:24;4.35;;;1.20;;
51814;SDS011;37874;53.158;6.766;2022-11-03T15:32:50;5.13;;;1.33;;
51814;SDS011;37874;53.158;6.766;2022-11-03T15:35:16;3.92;;;1.00;;
51814;SDS011;37874;53.158;6.766;2022-11-03T15:37:42;5.15;;;1.40;;
51814;SDS011;37874;53.158;6.766;2022-11-03T15:40:09;2.88;;;1.00;;
51814;SDS011;37874;53.158;6.766;2022-11-03T15:42:37;4.28;;;1.40;;
51814;SDS011;37874;53.158;6.766;2022-11-03T15:45:04;5.80;;;1.23;;
51814;SDS011;37874;53.158;6.766;2022-11-03T15:47:31;5.35;;;1.50;;
51814;SDS011;37874;53.158;6.766;2022-11-03T15:49:56;3.50;;;1.38;;
51814;SDS011;37874;53.158;6.766;2022-11-03T15:52:22;6.25;;;1.70;;
51814;SDS011;37874;53.158;6.766;2022-11-03T15:54:48;4.35;;;1.60;;
51814;SDS011;37874;53.158;6.766;2022-11-03T15:57:13;4.15;;;1.42;;
51814;SDS011;37874;53.158;6.766;2022-11-03T15:59:40;4.78;;;1.60;;
51814;SDS011;37874;53.158;6.766;2022-11-03T16:02:05;3.90;;;1.30;;
51814;SDS011;37874;53.158;6.766;2022-11-03T16:04:32;3.47;;;1.45;;
51814;SDS011;37874;53.158;6.766;2022-11-03T16:06:57;4.40;;;1.40;;
51814;SDS011;37874;53.158;6.766;2022-11-03T16:09:23;6.60;;;1.67;;
51814;SDS011;37874;53.158;6.766;2022-11-03T16:11:49;6.03;;;1.35;;
51814;SDS011;37874;53.158;6.766;2022-11-03T16:14:14;4.22;;;1.45;;
51814;SDS011;37874;53.158;6.766;2022-11-03T16:16:40;5.90;;;1.70;;
51814;SDS011;37874;53.158;6.766;2022-11-03T16:19:05;4.20;;;1.30;;
51814;SDS011;37874;53.158;6.766;2022-11-03T16:21:31;5.20;;;1.33;;
51814;SDS011;37874;53.158;6.766;2022-11-03T16:23:57;5.05;;;1.38;;
51814;SDS011;37874;53.158;6.766;2022-11-03T16:26:22;6.72;;;1.60;;
51814;SDS011;37874;53.158;6.766;2022-11-03T16:28:48;5.68;;;1.88;;
51814;SDS011;37874;53.158;6.766;2022-11-03T16:31:14;4.80;;;1.95;;
51814;SDS011;37874;53.158;6.766;2022-11-03T16:33:40;5.47;;;1.83;;
51814;SDS011;37874;53.158;6.766;2022-11-03T16:36:06;5.15;;;2.03;;
51814;SDS011;37874;53.158;6.766;2022-11-03T16:38:32;5.43;;;2.13;;
51814;SDS011;37874;53.158;6.766;2022-11-03T16:40:57;6.90;;;2.00;;
51814;SDS011;37874;53.158;6.766;2022-11-03T16:43:23;5.15;;;2.22;;
51814;SDS011;37874;53.158;6.766;2022-11-03T16:45:49;6.00;;;2.30;;
51814;SDS011;37874;53.158;6.766;2022-11-03T16:48:14;4.88;;;2.17;;
51814;SDS011;37874;53.158;6.766;2022-11-03T16:50:40;5.90;;;2.10;;
51814;SDS011;37874;53.158;6.766;2022-11-03T16:53:05;6.68;;;2.50;;
51814;SDS011;37874;53.158;6.766;2022-11-03T16:55:31;6.25;;;2.25;;
51814;SDS011;37874;53.158;6.766;2022-11-03T16:57:57;5.82;;;2.75;;
51814;SDS011;37874;53.158;6.766;2022-11-03T17:00:22;5.30;;;2.50;;
51814;SDS011;37874;53.158;6.766;2022-11-03T17:02:48;5.80;;;2.25;;
51814;SDS011;37874;53.158;6.766;2022-11-03T17:05:15;5.65;;;2.53;;
51814;SDS011;37874;53.158;6.766;2022-11-03T17:07:42;7.10;;;2.55;;
51814;SDS011;37874;53.158;6.766;2022-11-03T17:10:09;5.78;;;2.20;;
51814;SDS011;37874;53.158;6.766;2022-11-03T17:12:35;7.85;;;2.78;;
51814;SDS011;37874;53.158;6.766;2022-11-03T17:15:00;5.95;;;2.08;;
51814;SDS011;37874;53.158;6.766;2022-11-03T17:17:26;5.97;;;2.53;;
51814;SDS011;37874;53.158;6.766;2022-11-03T17:19:52;6.65;;;2.35;;
51814;SDS011;37874;53.158;6.766;2022-11-03T17:22:17;4.68;;;2.15;;
51814;SDS011;37874;53.158;6.766;2022-11-03T17:24:45;7.13;;;2.33;;
51814;SDS011;37874;53.158;6.766;2022-11-03T17:27:12;5.72;;;2.10;;
51814;SDS011;37874;53.158;6.766;2022-11-03T17:29:41;5.00;;;2.10;;
51814;SDS011;37874;53.158;6.766;2022-11-03T17:32:12;4.97;;;2.20;;
51814;SDS011;37874;53.158;6.766;2022-11-03T17:34:43;7.22;;;2.33;;
51814;SDS011;37874;53.158;6.766;2022-11-03T17:37:09;4.43;;;1.85;;
51814;SDS011;37874;53.158;6.766;2022-11-03T17:39:35;5.78;;;2.10;;
51814;SDS011;37874;53.158;6.766;2022-11-03T17:42:09;5.40;;;2.33;;
51814;SDS011;37874;53.158;6.766;2022-11-03T17:44:36;6.57;;;2.10;;
51814;SDS011;37874;53.158;6.766;2022-11-03T17:47:01;4.07;;;1.90;;
51814;SDS011;37874;53.158;6.766;2022-11-03T17:49:27;5.82;;;2.00;;
51814;SDS011;37874;53.158;6.766;2022-11-03T17:51:53;5.45;;;2.08;;
51814;SDS011;37874;53.158;6.766;2022-11-03T17:54:18;6.13;;;2.00;;
51814;SDS011;37874;53.158;6.766;2022-11-03T17:56:44;3.45;;;1.65;;
51814;SDS011;37874;53.158;6.766;2022-11-03T17:59:11;5.32;;;1.80;;
51814;SDS011;37874;53.158;6.766;2022-11-03T18:01:38;4.82;;;1.90;;